Time;durP1;ratioP1;P1;durP2;ratioP2;P2;SDS_P1;SDS_P2;PMS_P1;PMS_P2;Temp;Humidity;BMP_temperature;BMP_pressure;BME280_temperature;BME280_humidity;BME280_pressure;Samples;Min_cycle;Max_cycle;Signal;HPM_P1;HPM_P2
2022/03/16 07:38:04;;;;;;;;;12.75;9.50;;;;;17.28;55.92;101688.47;5072379;27;45454;-75
2022/03/16 07:40:31;;;;;;;;;9.50;8.25;;;;;17.46;56.04;101695.25;5067348;28;54084;-76
2022/03/16 07:42:57;;;;;;;;;8.25;7.75;;;;;17.69;56.02;101687.44;5065429;28;45799;-75
2022/03/16 07:45:23;;;;;;;;;8.50;8.50;;;;;17.93;56.17;101686.69;5057825;27;45327;-76
2022/03/16 07:47:50;;;;;;;;;11.50;7.50;;;;;18.21;55.81;101683.91;5062934;27;47526;-75
2022/03/16 07:50:17;;;;;;;;;8.25;7.00;;;;;18.46;55.46;101691.06;5069133;28;45564;-75
2022/03/16 07:52:43;;;;;;;;;6.75;6.25;;;;;18.72;55.33;101684.75;5065657;28;45947;-75
2022/03/16 07:55:10;;;;;;;;;6.00;6.00;;;;;18.94;54.74;101678.63;5059037;27;45534;-75
2022/03/16 07:57:36;;;;;;;;;13.75;10.75;;;;;19.17;54.78;101674.22;5053547;28;46225;-76
2022/03/16 08:00:07;;;;;;;;;8.25;7.00;;;;;19.37;54.18;101669.16;5069424;28;45534;-78
2022/03/16 08:02:32;;;;;;;;;7.75;7.00;;;;;19.59;54.17;101675.56;5068520;27;45533;-76
2022/03/16 08:05:00;;;;;;;;;9.50;9.50;;;;;19.76;53.77;101676.94;5062443;28;45481;-76
2022/03/16 08:07:26;;;;;;;;;7.50;7.50;;;;;19.94;53.51;101673.78;5061863;27;46944;-78
2022/03/16 08:09:51;;;;;;;;;7.00;7.00;;;;;20.10;53.50;101678.81;5060515;27;45493;-76
2022/03/16 08:12:17;;;;;;;;;12.33;10.00;;;;;20.23;53.13;101671.47;5067564;27;45368;-76
2022/03/16 08:14:42;;;;;;;;;8.75;6.25;;;;;20.37;52.88;101661.41;5066670;27;45530;-74
2022/03/16 08:17:07;;;;;;;;;8.00;7.00;;;;;20.48;52.65;101664.06;5068183;27;45486;-74
2022/03/16 08:19:32;;;;;;;;;6.67;6.33;;;;;20.58;52.34;101656.09;5060033;28;61967;-73
2022/03/16 08:21:59;;;;;;;;;7.33;7.33;;;;;20.68;52.63;101656.16;5060763;28;45437;-75
2022/03/16 08:24:24;;;;;;;;;8.00;8.00;;;;;20.78;51.97;101657.16;5068458;28;45638;-78
2022/03/16 08:26:49;;;;;;;;;7.67;7.00;;;;;20.88;51.79;101659.09;5066185;28;45522;-73
2022/03/16 08:29:15;;;;;;;;;7.00;7.00;;;;;20.95;51.61;101652.19;5064016;28;54228;-75
2022/03/16 08:31:40;;;;;;;;;11.00;7.67;;;;;21.03;51.33;101660.50;5064896;28;46262;-73
2022/03/16 08:34:06;;;;;;;;;8.00;7.00;;;;;21.08;50.74;101656.56;5064474;28;45676;-75
2022/03/16 08:36:32;;;;;;;;;11.33;8.67;;;;;21.14;50.78;101658.75;5063194;28;46391;-75
2022/03/16 08:38:57;;;;;;;;;7.67;7.67;;;;;21.19;50.88;101670.88;5064708;28;45497;-76
2022/03/16 08:41:22;;;;;;;;;10.00;8.33;;;;;21.25;50.98;101665.94;5060125;27;45462;-75
2022/03/16 08:43:48;;;;;;;;;9.67;8.00;;;;;21.29;50.48;101670.94;5065331;28;46007;-73
2022/03/16 08:46:13;;;;;;;;;9.33;6.33;;;;;21.35;50.77;101679.50;5064776;27;46221;-74
2022/03/16 08:48:38;;;;;;;;;8.33;6.67;;;;;21.37;50.40;101672.97;5058912;28;45558;-75
2022/03/16 08:51:06;;;;;;;;;10.67;8.00;;;;;21.42;50.15;101683.38;5055966;28;45363;-75
2022/03/16 08:53:31;;;;;;;;;13.67;7.33;;;;;21.45;50.67;101681.28;5049222;28;45469;-75
2022/03/16 08:55:57;;;;;;;;;9.00;7.00;;;;;21.49;50.05;101681.84;5053486;28;46123;-75
2022/03/16 08:58:22;;;;;;;;;8.00;6.33;;;;;21.53;50.14;101687.84;5054314;28;45343;-77
2022/03/16 09:00:47;;;;;;;;;10.00;9.33;;;;;21.56;50.54;101685.75;5055344;28;45379;-75
2022/03/16 09:03:13;;;;;;;;;9.00;9.00;;;;;21.60;50.43;101686.34;5050789;28;47890;-77
2022/03/16 09:05:38;;;;;;;;;8.00;6.33;;;;;21.63;50.36;101694.19;5037816;28;45477;-77
2022/03/16 09:08:04;;;;;;;;;7.00;7.00;;;;;21.67;49.83;101698.31;5047353;28;45352;-76
2022/03/16 09:10:30;;;;;;;;;7.00;7.00;;;;;21.70;49.79;101702.59;5049299;28;45497;-76
2022/03/16 09:12:55;;;;;;;;;11.00;8.00;;;;;21.74;50.16;101706.78;5054693;28;50310;-76
2022/03/16 09:15:21;;;;;;;;;8.00;8.00;;;;;21.76;50.23;101699.41;5047740;28;45466;-77
2022/03/16 09:17:46;;;;;;;;;9.67;7.00;;;;;21.79;50.26;101701.00;5054543;28;45489;-77
2022/03/16 09:20:11;;;;;;;;;9.00;8.67;;;;;21.81;50.11;101691.75;5053245;28;45398;-76
2022/03/16 09:22:36;;;;;;;;;9.00;7.33;;;;;21.84;50.15;101690.63;5053560;28;45452;-76
2022/03/16 09:25:02;;;;;;;;;8.67;8.33;;;;;21.85;50.27;101678.81;5052999;28;46485;-77
2022/03/16 09:27:28;;;;;;;;;9.33;8.00;;;;;21.88;50.08;101694.78;5054561;28;45467;-80
2022/03/16 09:29:55;;;;;;;;;7.00;6.00;;;;;21.90;50.18;101692.78;5052167;28;45383;-75
2022/03/16 09:32:21;;;;;;;;;7.00;7.00;;;;;21.92;50.23;101693.53;5049502;28;45462;-77
2022/03/16 09:34:47;;;;;;;;;12.67;11.00;;;;;21.94;48.50;101693.38;5053216;28;46295;-75
2022/03/16 09:37:14;;;;;;;;;13.33;9.33;;;;;21.92;48.21;101689.97;5053717;28;48322;-76
2022/03/16 09:39:41;;;;;;;;;10.00;10.00;;;;;21.89;47.55;101693.78;5052238;28;51707;-77
2022/03/16 09:42:08;;;;;;;;;15.67;12.00;;;;;21.85;47.51;101687.81;5052269;28;45670;-75
2022/03/16 09:44:33;;;;;;;;;15.00;11.33;;;;;21.85;47.91;101690.50;5054188;28;45932;-74
2022/03/16 09:46:59;;;;;;;;;12.33;11.00;;;;;21.84;47.48;101688.78;5051602;28;45545;-76
2022/03/16 09:49:28;;;;;;;;;11.33;11.00;;;;;21.82;47.04;101679.09;5050828;28;45656;-74
2022/03/16 09:51:54;;;;;;;;;13.00;10.67;;;;;21.80;47.60;101683.78;5053904;28;45512;-74
2022/03/16 09:54:24;;;;;;;;;12.67;11.00;;;;;21.77;47.07;101681.34;5054293;28;45400;-74
2022/03/16 09:56:49;;;;;;;;;11.00;11.00;;;;;21.75;46.90;101673.41;5049219;28;45375;-74
2022/03/16 09:59:15;;;;;;;;;12.00;12.00;;;;;21.73;47.57;101678.06;5051355;28;45308;-74
2022/03/16 10:01:43;;;;;;;;;12.33;12.33;;;;;21.71;46.83;101680.88;5050626;28;45481;-74
2022/03/16 10:04:09;;;;;;;;;12.67;12.67;;;;;21.70;47.42;101683.69;5053198;28;45273;-80
2022/03/16 10:06:40;;;;;;;;;12.67;10.67;;;;;21.72;47.69;101679.06;5049825;28;45870;-75
2022/03/16 10:15:13;;;;;;;;;12.33;12.33;;;;;21.80;47.56;101679.25;5051026;28;45810;-75
2022/03/16 10:17:45;;;;;;;;;12.33;10.00;;;;;21.82;47.75;101685.34;5056887;28;45800;-75
2022/03/16 10:20:40;;;;;;;;;11.00;9.33;;;;;21.87;47.80;101676.88;5054471;27;45493;-74
2022/03/16 10:23:24;;;;;;;;;11.00;11.00;;;;;21.90;47.55;101681.97;5048914;28;45454;-76
2022/03/16 10:25:53;;;;;;;;;14.00;11.00;;;;;21.92;47.76;101665.63;5053246;28;46447;-78
2022/03/16 10:28:29;;;;;;;;;10.00;8.67;;;;;21.94;47.30;101666.34;5053395;28;45591;-75
2022/03/16 10:30:57;;;;;;;;;10.33;10.33;;;;;21.95;47.64;101658.09;5049673;28;45378;-76
2022/03/16 10:33:26;;;;;;;;;11.33;10.00;;;;;21.96;47.57;101659.81;5036834;28;45499;-77
2022/03/16 10:36:09;;;;;;;;;9.67;9.67;;;;;22.00;47.74;101659.56;5041804;28;47144;-77
2022/03/16 10:38:38;;;;;;;;;9.00;8.67;;;;;22.01;47.25;101659.41;5052150;28;45816;-78
2022/03/16 10:46:34;;;;;;;;;9.33;9.33;;;;;22.04;47.58;101661.00;5048045;28;45594;-76
2022/03/16 10:47:14;;;;;;;;;22.75;22.75;;;;;22.04;45.78;101664.56;5048625;28;45441;-77
2022/03/16 10:49:40;;;;;;;;;23.00;22.50;;;;;21.97;46.20;101656.13;5037148;28;45448;-75
2022/03/16 10:52:14;;;;;;;;;20.75;20.00;;;;;21.96;46.11;101656.25;5047526;28;45487;-76
2022/03/16 10:54:40;;;;;;;;;20.00;18.50;;;;;21.94;46.81;101648.28;5044891;28;45648;-76
2022/03/16 10:57:10;;;;;;;;;18.50;17.00;;;;;21.95;46.87;101636.47;5040766;28;45403;-75
2022/03/16 10:59:36;;;;;;;;;16.67;15.67;;;;;21.97;46.34;101642.63;5043450;28;45489;-76
2022/03/16 11:02:05;;;;;;;;;18.33;17.33;;;;;21.99;46.88;101639.78;5045955;28;45769;-77
2022/03/16 11:04:35;;;;;;;;;20.75;15.75;;;;;22.02;46.88;101641.38;5052326;28;45745;-75
2022/03/16 11:07:01;;;;;;;;;13.33;12.33;;;;;22.03;47.10;101634.97;5052411;28;49314;-75
2022/03/16 11:09:28;;;;;;;;;19.33;14.00;;;;;22.04;46.77;101625.84;5068845;27;45499;-77
2022/03/16 11:14:40;;;;;;;;;17.67;15.33;;;;;22.07;46.14;101621.00;5052187;28;45561;-72
2022/03/16 11:17:06;;;;;;;;;15.50;15.50;;;;;22.05;45.90;101623.00;5052657;28;45473;-72
2022/03/16 11:19:33;;;;;;;;;14.67;14.67;;;;;22.02;45.58;101620.56;5049196;28;46949;-72
2022/03/16 11:22:02;;;;;;;;;18.33;14.67;;;;;22.00;45.86;101627.13;5045731;28;45593;-76
2022/03/16 11:24:33;;;;;;;;;17.25;14.25;;;;;22.00;46.38;101619.88;5052492;28;45880;-77
2022/03/16 11:27:09;;;;;;;;;13.00;13.00;;;;;22.03;46.11;101608.75;5051027;28;46113;-76
2022/03/16 11:29:50;;;;;;;;;17.67;16.00;;;;;22.08;45.86;101597.56;5047587;28;45540;-75
2022/03/16 11:32:18;;;;;;;;;12.00;10.33;;;;;22.12;46.15;101590.88;5050324;28;45369;-79
2022/03/16 11:34:48;;;;;;;;;16.00;15.00;;;;;22.16;45.49;101596.84;5049649;28;45494;-76
2022/03/16 11:37:14;;;;;;;;;11.00;10.00;;;;;22.15;45.46;101589.75;5043053;28;46059;-77
2022/03/16 11:39:45;;;;;;;;;11.00;10.00;;;;;22.15;45.16;101585.16;5056325;28;45680;-76
2022/03/16 11:42:16;;;;;;;;;13.67;13.67;;;;;22.15;45.21;101584.34;5056279;28;45480;-76
2022/03/16 11:44:41;;;;;;;;;11.67;11.33;;;;;22.14;44.76;101588.88;5048864;27;45450;-75
2022/03/16 11:47:10;;;;;;;;;13.67;12.00;;;;;22.13;44.84;101584.47;5040882;28;46109;-75
2022/03/16 11:49:38;;;;;;;;;11.00;11.00;;;;;22.13;44.90;101572.78;5042044;28;45499;-75
2022/03/16 11:52:05;;;;;;;;;15.00;13.33;;;;;22.11;44.62;101575.63;5041548;28;45905;-76
2022/03/16 11:54:42;;;;;;;;;15.00;12.33;;;;;22.11;45.03;101570.22;5055477;28;45722;-76
2022/03/16 11:57:09;;;;;;;;;12.33;10.33;;;;;22.11;44.67;101570.22;5045800;28;45486;-76
2022/03/16 11:59:44;;;;;;;;;13.67;11.33;;;;;22.10;44.77;101569.38;5057948;27;45762;-76
2022/03/16 12:02:25;;;;;;;;;13.00;11.00;;;;;22.09;45.36;101567.69;5050889;27;45422;-75
2022/03/16 12:04:58;;;;;;;;;10.00;10.00;;;;;22.09;45.21;101562.28;5049921;28;45729;-75
2022/03/16 12:07:30;;;;;;;;;13.67;13.33;;;;;22.11;44.94;101554.00;5050376;28;46180;-75
2022/03/16 12:09:55;;;;;;;;;12.00;11.33;;;;;22.12;44.77;101550.31;5051172;28;45423;-77
2022/03/16 12:15:09;;;;;;;;;11.00;11.00;;;;;22.25;45.33;101553.59;5053150;28;45556;-74
2022/03/16 12:17:35;;;;;;;;;10.33;10.33;;;;;22.37;44.91;101538.09;5038783;28;46483;-75
2022/03/16 12:20:16;;;;;;;;;15.33;12.33;;;;;22.49;45.19;101548.78;5044944;28;45999;-75
2022/03/16 12:22:49;;;;;;;;;11.33;10.00;;;;;22.59;45.54;101546.97;5052719;28;45564;-75
2022/03/16 12:25:46;;;;;;;;;11.33;11.00;;;;;22.72;45.14;101535.00;5056437;28;45678;-75
2022/03/16 12:31:08;;;;;;;;;17.00;14.00;;;;;22.95;44.66;101532.84;5050411;28;45396;-76
2022/03/16 12:33:39;;;;;;;;;11.67;11.67;;;;;23.07;45.21;101524.53;5053593;28;45378;-76
2022/03/16 12:36:07;;;;;;;;;17.67;16.00;;;;;23.17;45.48;101515.38;5048108;28;45502;-76
2022/03/16 12:38:35;;;;;;;;;11.00;11.00;;;;;23.27;45.40;101509.94;5056013;28;46394;-78
2022/03/16 12:43:48;;;;;;;;;11.67;11.67;;;;;23.49;45.41;101496.16;5052310;28;50400;-78
2022/03/16 12:46:23;;;;;;;;;17.67;16.00;;;;;23.58;45.16;101486.31;5050029;28;45415;-79
2022/03/16 12:48:54;;;;;;;;;14.67;14.67;;;;;23.67;45.07;101491.66;5049590;28;46122;-75
2022/03/16 12:51:39;;;;;;;;;13.00;13.00;;;;;23.75;44.92;101490.91;5055758;28;45518;-76
2022/03/16 12:54:06;;;;;;;;;12.00;12.00;;;;;23.80;44.94;101488.59;5054166;28;45576;-76
2022/03/16 12:56:53;;;;;;;;;15.33;13.67;;;;;23.85;44.86;101480.00;5044921;28;45882;-75
2022/03/16 12:59:22;;;;;;;;;13.00;13.00;;;;;23.89;44.56;101480.53;5040124;28;47541;-75
2022/03/16 13:01:48;;;;;;;;;12.67;11.33;;;;;23.91;44.77;101471.25;5039527;28;45520;-74
2022/03/16 13:04:16;;;;;;;;;12.00;9.67;;;;;23.93;44.44;101465.69;5041740;28;45446;-77
2022/03/16 13:06:42;;;;;;;;;11.33;10.33;;;;;23.95;44.66;101461.81;5041060;28;45419;-75
2022/03/16 13:09:09;;;;;;;;;12.33;12.33;;;;;23.98;44.94;101460.66;5038854;28;45483;-75
2022/03/16 13:11:36;;;;;;;;;13.33;12.33;;;;;24.02;44.57;101472.91;5041496;28;45873;-74
2022/03/16 13:14:18;;;;;;;;;12.33;12.33;;;;;24.07;44.56;101467.00;5039366;28;45794;-73
2022/03/16 13:16:47;;;;;;;;;13.33;12.67;;;;;24.13;44.68;101468.28;5040714;28;45587;-74
2022/03/16 13:19:24;;;;;;;;;12.33;11.33;;;;;24.18;45.24;101465.94;5037444;28;45913;-74
2022/03/16 13:22:03;;;;;;;;;11.33;11.00;;;;;24.23;44.95;101474.47;5039282;28;45498;-76
2022/03/16 13:24:31;;;;;;;;;11.67;11.67;;;;;24.29;44.41;101473.00;5036622;28;45625;-75
2022/03/16 13:26:56;;;;;;;;;10.33;10.00;;;;;24.36;44.80;101478.66;5041973;28;45502;-77
2022/03/16 13:29:22;;;;;;;;;10.00;10.00;;;;;24.41;44.87;101481.75;5045852;28;45855;-76
2022/03/16 13:31:55;;;;;;;;;12.67;10.67;;;;;24.46;44.86;101484.84;5049379;28;45477;-74
2022/03/16 13:34:20;;;;;;;;;11.67;10.33;;;;;24.52;44.84;101488.81;5053290;28;45367;-74
2022/03/16 13:36:46;;;;;;;;;12.33;11.67;;;;;24.55;44.93;101491.19;5046924;28;45902;-74
2022/03/16 13:39:30;;;;;;;;;14.33;14.33;;;;;24.59;44.70;101482.59;5048587;28;46241;-75
2022/03/16 13:42:24;;;;;;;;;16.67;11.00;;;;;24.64;44.86;101494.81;5044495;28;46710;-74
2022/03/16 13:44:52;;;;;;;;;12.00;12.00;;;;;24.65;45.00;101500.09;5049605;28;45404;-76
2022/03/16 13:47:18;;;;;;;;;12.33;12.33;;;;;24.66;44.70;101504.53;5048835;28;45488;-76
2022/03/16 13:49:45;;;;;;;;;12.33;12.00;;;;;24.68;44.52;101515.22;5049430;28;45704;-74
2022/03/16 13:52:13;;;;;;;;;15.00;12.67;;;;;24.63;43.58;101514.81;5045468;28;45425;-77
2022/03/16 13:54:39;;;;;;;;;13.33;12.67;;;;;24.60;43.79;101510.56;5042756;28;45497;-77
2022/03/16 13:57:23;;;;;;;;;15.00;13.33;;;;;24.57;43.92;101500.88;5043434;28;45589;-78
2022/03/16 13:59:57;;;;;;;;;18.33;13.00;;;;;24.55;44.02;101508.31;5041310;28;46454;-77
2022/03/16 14:02:26;;;;;;;;;10.33;10.33;;;;;24.52;43.88;101514.06;5041959;28;45893;-75
2022/03/16 14:04:57;;;;;;;;;14.00;14.00;;;;;24.48;44.38;101512.66;5042554;28;45510;-77
2022/03/16 14:07:28;;;;;;;;;11.00;9.00;;;;;24.45;44.17;101510.28;5047402;28;45816;-75
2022/03/16 14:09:59;;;;;;;;;15.33;13.33;;;;;24.42;44.48;101522.28;5043737;28;46040;-76
2022/03/16 14:12:26;;;;;;;;;11.67;11.67;;;;;24.39;44.13;101538.03;5043544;28;45423;-75
2022/03/16 14:15:18;;;;;;;;;13.67;13.67;;;;;24.35;44.74;101518.50;5046236;28;45671;-77
2022/03/16 14:17:58;;;;;;;;;15.67;13.67;;;;;24.27;42.62;101511.13;5043602;28;45537;-74
2022/03/16 14:20:32;;;;;;;;;12.67;12.67;;;;;24.13;42.46;101523.38;5043185;28;46600;-80
2022/03/16 14:22:58;;;;;;;;;16.33;13.67;;;;;24.06;43.19;101533.09;5042738;28;45501;-79
2022/03/16 14:25:29;;;;;;;;;13.00;10.67;;;;;24.00;42.82;101522.84;5045875;28;45467;-79
2022/03/16 14:27:58;;;;;;;;;14.00;13.67;;;;;23.94;43.17;101517.03;5036624;28;47203;-75
2022/03/16 14:30:29;;;;;;;;;12.33;12.33;;;;;23.91;43.13;101508.38;5040726;28;45781;-75
2022/03/16 14:33:00;;;;;;;;;13.67;10.33;;;;;23.86;43.65;101506.09;5033627;28;46529;-77
2022/03/16 14:35:27;;;;;;;;;12.00;12.00;;;;;23.83;43.80;101501.00;5044745;28;45940;-78
2022/03/16 14:37:53;;;;;;;;;13.00;11.33;;;;;23.80;43.61;101501.31;5040384;28;45863;-78
2022/03/16 14:40:24;;;;;;;;;15.33;13.00;;;;;23.80;44.29;101509.44;5044914;28;45691;-77
2022/03/16 14:42:54;;;;;;;;;14.67;12.33;;;;;23.77;44.00;101510.59;5040947;28;45931;-78
2022/03/16 14:45:23;;;;;;;;;13.33;11.67;;;;;23.75;44.18;101515.28;5044323;28;45568;-77
2022/03/16 14:47:49;;;;;;;;;13.33;12.67;;;;;23.74;44.37;101513.59;5043356;28;45584;-77
2022/03/16 14:50:15;;;;;;;;;12.00;11.00;;;;;23.74;44.79;101518.19;5042957;28;45895;-79
2022/03/16 14:52:40;;;;;;;;;12.67;12.67;;;;;23.74;44.51;101518.19;5043416;28;45874;-77
2022/03/16 14:55:06;;;;;;;;;8.00;6.00;;;;;23.73;44.60;101514.59;5042464;27;45361;-77
2022/03/16 14:57:32;;;;;;;;;13.33;12.67;;;;;23.72;44.67;101510.19;5038557;28;45622;-76
2022/03/16 14:59:57;;;;;;;;;12.33;11.33;;;;;23.73;44.82;101516.44;5040493;28;47054;-77
2022/03/16 15:02:24;;;;;;;;;13.33;12.67;;;;;23.72;44.65;101506.63;5038698;28;45935;-82
2022/03/16 15:04:51;;;;;;;;;8.67;8.67;;;;;23.72;44.85;101501.19;5037935;28;45573;-80
2022/03/16 15:07:17;;;;;;;;;11.00;9.67;;;;;23.69;45.13;101500.50;5039315;28;46385;-79
2022/03/16 15:09:42;;;;;;;;;12.00;10.67;;;;;23.68;44.97;101500.66;5038396;28;47181;-76
2022/03/16 15:12:08;;;;;;;;;10.33;10.33;;;;;23.68;44.91;101495.22;5037720;28;45825;-75
2022/03/16 15:14:34;;;;;;;;;8.33;8.33;;;;;23.67;45.10;101491.66;5037881;28;46720;-76
2022/03/16 15:16:59;;;;;;;;;10.00;10.00;;;;;23.67;44.72;101486.25;5035520;28;45713;-78
2022/03/16 15:19:24;;;;;;;;;11.67;10.00;;;;;23.67;44.85;101490.81;5037184;28;45526;-77
2022/03/16 15:21:50;;;;;;;;;13.67;10.67;;;;;23.66;45.09;101483.69;5039446;28;45635;-81
2022/03/16 15:24:15;;;;;;;;;10.67;7.67;;;;;23.65;44.83;101488.25;5045730;28;45473;-77
2022/03/16 15:26:40;;;;;;;;;9.67;9.67;;;;;23.64;45.11;101489.28;5044448;28;45503;-76
2022/03/16 15:29:09;;;;;;;;;11.00;11.00;;;;;23.63;45.25;101492.97;5047932;28;45542;-79
2022/03/16 15:31:36;;;;;;;;;10.33;10.33;;;;;23.63;45.31;101481.28;5040794;28;45671;-77
2022/03/16 15:34:05;;;;;;;;;10.00;9.00;;;;;23.62;45.26;101485.84;5038790;28;45483;-78
2022/03/16 15:36:31;;;;;;;;;10.67;8.67;;;;;23.61;45.33;101481.44;5037650;28;45508;-78
2022/03/16 15:38:56;;;;;;;;;8.00;8.00;;;;;23.60;45.04;101476.16;5037119;28;46051;-77
2022/03/16 15:44:05;;;;;;;;;11.67;9.33;;;;;23.59;45.35;101477.16;5037061;28;45376;-78
2022/03/16 15:46:31;;;;;;;;;9.67;9.33;;;;;23.58;45.81;101470.88;5037511;28;45584;-78
2022/03/16 15:48:58;;;;;;;;;11.67;9.00;;;;;23.58;45.29;101470.88;5039021;28;45391;-77
2022/03/16 15:51:24;;;;;;;;;11.33;11.33;;;;;23.57;45.45;101466.47;5035886;28;45389;-78
2022/03/16 15:53:50;;;;;;;;;9.67;9.00;;;;;23.58;45.52;101475.47;5038219;28;45524;-78
2022/03/16 15:56:16;;;;;;;;;11.00;10.00;;;;;23.57;45.30;101473.78;5038931;28;50201;-76
2022/03/16 15:58:41;;;;;;;;;12.67;10.33;;;;;23.55;45.59;101480.16;5050231;28;46223;-76
2022/03/16 16:01:06;;;;;;;;;10.67;10.33;;;;;23.54;45.86;101473.06;5059344;28;45473;-80
2022/03/16 16:03:33;;;;;;;;;11.00;11.00;;;;;23.54;45.68;101464.09;5069027;28;45859;-78
2022/03/16 16:06:02;;;;;;;;;13.00;10.67;;;;;23.52;44.66;101450.69;5061142;28;45533;-75
2022/03/16 16:08:29;;;;;;;;;16.67;13.00;;;;;23.46;43.35;101443.16;5051268;27;45493;-77
2022/03/16 16:11:16;;;;;;;;;15.00;13.33;;;;;23.38;43.15;101441.19;5057126;28;45498;-75
2022/03/16 16:13:43;;;;;;;;;13.00;11.67;;;;;23.28;43.49;101424.97;5056377;27;45465;-74
2022/03/16 16:16:11;;;;;;;;;15.00;13.67;;;;;23.21;43.41;101429.28;5045605;27;45605;-74
2022/03/16 16:18:36;;;;;;;;;14.67;13.33;;;;;23.13;43.46;101430.03;5063043;28;46155;-75
2022/03/16 16:21:04;;;;;;;;;17.33;12.33;;;;;23.06;43.00;101444.31;5048299;28;45580;-74
2022/03/16 16:23:31;;;;;;;;;16.67;13.33;;;;;22.97;43.21;101432.53;5051350;28;45534;-75
2022/03/16 16:25:57;;;;;;;;;13.00;12.00;;;;;22.88;43.40;101429.69;5048625;28;45565;-81
2022/03/16 16:28:23;;;;;;;;;11.33;11.00;;;;;22.82;43.62;101434.84;5046497;28;46858;-76
2022/03/16 16:30:54;;;;;;;;;16.67;14.33;;;;;22.75;43.61;101424.63;5047633;28;45536;-75
2022/03/16 16:33:20;;;;;;;;;13.00;11.00;;;;;22.70;43.59;101431.47;5040315;28;46820;-76
2022/03/16 16:35:45;;;;;;;;;10.67;9.33;;;;;22.64;43.45;101427.47;5043085;28;55879;-76
2022/03/16 16:38:12;;;;;;;;;13.33;11.33;;;;;22.59;43.56;101435.19;5042108;28;45948;-76
2022/03/16 16:40:38;;;;;;;;;12.00;10.67;;;;;22.54;43.89;101429.34;5044957;28;45600;-77
2022/03/16 16:43:13;;;;;;;;;12.67;9.67;;;;;22.51;43.27;101427.75;5037386;28;45824;-80
2022/03/16 16:45:40;;;;;;;;;13.33;11.00;;;;;22.47;43.88;101426.34;5044017;28;46944;-78
2022/03/16 16:48:07;;;;;;;;;23.33;15.33;;;;;22.42;43.64;101425.91;5038626;28;45268;-77
2022/03/16 16:50:34;;;;;;;;;21.67;14.00;;;;;22.38;43.77;101442.47;5044387;28;45672;-78
2022/03/16 16:53:02;;;;;;;;;13.67;13.33;;;;;22.34;43.70;101449.16;5048346;28;45306;-78
2022/03/16 16:55:28;;;;;;;;;12.00;12.00;;;;;22.31;44.33;101452.13;5044148;28;47087;-78
2022/03/16 16:57:54;;;;;;;;;13.67;13.33;;;;;22.30;44.43;101445.00;5043794;28;46073;-78
2022/03/16 17:00:21;;;;;;;;;16.00;14.33;;;;;22.28;43.95;101449.72;5046745;28;45507;-78
2022/03/16 17:02:50;;;;;;;;;11.67;11.67;;;;;22.25;43.92;101448.13;5051711;28;45728;-78
2022/03/16 17:05:16;;;;;;;;;14.00;12.00;;;;;22.24;43.99;101459.13;5048704;28;45980;-78
2022/03/16 17:07:44;;;;;;;;;15.67;14.00;;;;;22.22;43.86;101459.25;5047065;28;46840;-78
2022/03/16 17:10:09;;;;;;;;;13.00;11.00;;;;;22.22;44.34;101469.22;5047887;28;45440;-79
2022/03/16 17:12:35;;;;;;;;;17.67;13.67;;;;;22.19;44.01;101462.22;5046468;28;46489;-78
2022/03/16 17:15:00;;;;;;;;;18.25;17.25;;;;;22.18;44.44;101465.94;5046333;28;45684;-78
2022/03/16 17:17:26;;;;;;;;;16.33;14.00;;;;;22.16;44.04;101461.66;5048107;28;49706;-77
2022/03/16 17:19:51;;;;;;;;;14.33;14.33;;;;;22.13;44.13;101475.47;5054530;28;45362;-77
2022/03/16 17:22:16;;;;;;;;;18.67;17.33;;;;;22.10;44.28;101471.19;5044123;28;45580;-77
2022/03/16 17:24:42;;;;;;;;;13.00;13.00;;;;;22.08;44.01;101465.91;5041787;28;45304;-77
2022/03/16 17:27:11;;;;;;;;;14.00;13.33;;;;;22.05;44.10;101460.81;5057604;28;45884;-78
2022/03/16 17:29:36;;;;;;;;;15.00;11.00;;;;;22.03;44.00;101470.91;5058242;27;45523;-79
2022/03/16 17:32:02;;;;;;;;;14.67;11.33;;;;;22.02;43.74;101468.38;5043942;28;46784;-80
2022/03/16 17:34:28;;;;;;;;;10.33;10.33;;;;;21.97;43.50;101469.63;5052351;28;45601;-79
2022/03/16 17:36:53;;;;;;;;;10.67;10.33;;;;;21.95;44.36;101479.72;5043750;28;45528;-79
2022/03/16 17:39:18;;;;;;;;;12.33;11.67;;;;;21.92;44.31;101465.63;5038339;28;45443;-79
2022/03/16 17:47:11;;;;;;;;;14.00;9.33;;;;;21.85;43.91;101478.84;5040059;28;46456;-81
2022/03/16 17:49:37;;;;;;;;;13.00;13.00;;;;;21.83;44.31;101484.38;5035690;28;45814;-77
2022/03/16 17:52:03;;;;;;;;;16.67;14.33;;;;;21.83;44.30;101480.84;5038968;28;45744;-80
2022/03/16 17:54:28;;;;;;;;;19.25;14.75;;;;;21.82;44.83;101487.22;5042695;28;45830;-78
2022/03/16 17:56:54;;;;;;;;;17.75;15.00;;;;;21.80;45.12;101492.78;5040007;28;46100;-77
2022/03/16 17:59:22;;;;;;;;;15.00;12.67;;;;;21.79;44.46;101490.22;5041485;28;45510;-78
2022/03/16 18:01:49;;;;;;;;;18.00;13.00;;;;;21.77;45.11;101498.47;5043217;28;45407;-75
2022/03/16 18:04:16;;;;;;;;;18.33;15.67;;;;;21.76;45.03;101502.16;5044846;28;45580;-78
2022/03/16 18:06:43;;;;;;;;;18.00;15.33;;;;;21.75;44.67;101496.91;5042204;28;45653;-77
2022/03/16 18:09:10;;;;;;;;;17.00;13.00;;;;;21.74;45.28;101503.28;5038949;28;45699;-78
2022/03/16 18:14:19;;;;;;;;;14.00;12.67;;;;;21.71;45.37;101507.97;5042299;28;46625;-76
2022/03/16 18:16:45;;;;;;;;;16.00;15.67;;;;;21.73;45.14;101515.94;5041884;28;45963;-75
2022/03/16 18:19:11;;;;;;;;;18.00;17.25;;;;;21.73;45.09;101521.34;5042485;28;45518;-82
2022/03/16 18:21:36;;;;;;;;;15.75;15.75;;;;;21.72;44.77;101525.03;5042528;28;47983;-79
